sensor_id;sensor_type;location;lat;lon;timestamp;P1;durP1;ratioP1;P2;durP2;ratioP2
10845;SDS011;5476;51.540;7.186;2023-06-14T00:01:42;7.65;;;6.70;;
10845;SDS011;5476;51.540;7.186;2023-06-14T00:04:10;8.70;;;6.13;;
10845;SDS011;5476;51.540;7.186;2023-06-14T00:06:37;7.22;;;6.53;;
10845;SDS011;5476;51.540;7.186;2023-06-14T00:09:06;6.65;;;6.05;;
10845;SDS011;5476;51.540;7.186;2023-06-14T00:11:34;6.78;;;6.18;;
10845;SDS011;5476;51.540;7.186;2023-06-14T00:14:02;10.50;;;6.00;;
10845;SDS011;5476;51.540;7.186;2023-06-14T00:16:30;8.38;;;6.15;;
10845;SDS011;5476;51.540;7.186;2023-06-14T00:18:58;9.10;;;6.05;;
10845;SDS011;5476;51.540;7.186;2023-06-14T00:21:25;7.80;;;6.35;;
10845;SDS011;5476;51.540;7.186;2023-06-14T00:23:53;6.88;;;6.20;;
10845;SDS011;5476;51.540;7.186;2023-06-14T00:26:20;6.53;;;5.82;;
10845;SDS011;5476;51.540;7.186;2023-06-14T00:28:47;6.97;;;6.03;;
10845;SDS011;5476;51.540;7.186;2023-06-14T00:31:15;6.55;;;5.70;;
10845;SDS011;5476;51.540;7.186;2023-06-14T00:33:42;8.05;;;6.15;;
10845;SDS011;5476;51.540;7.186;2023-06-14T00:36:11;7.57;;;5.78;;
10845;SDS011;5476;51.540;7.186;2023-06-14T00:38:38;8.50;;;6.20;;
10845;SDS011;5476;51.540;7.186;2023-06-14T00:41:05;6.63;;;6.00;;
10845;SDS011;5476;51.540;7.186;2023-06-14T00:43:32;6.45;;;5.80;;
10845;SDS011;5476;51.540;7.186;2023-06-14T00:45:59;7.03;;;6.32;;
10845;SDS011;5476;51.540;7.186;2023-06-14T00:48:28;7.65;;;6.18;;
10845;SDS011;5476;51.540;7.186;2023-06-14T00:50:56;5.57;;;4.85;;
10845;SDS011;5476;51.540;7.186;2023-06-14T00:53:27;8.93;;;5.80;;
10845;SDS011;5476;51.540;7.186;2023-06-14T00:55:55;7.20;;;5.70;;
10845;SDS011;5476;51.540;7.186;2023-06-14T00:58:22;6.75;;;5.80;;
10845;SDS011;5476;51.540;7.186;2023-06-14T01:00:49;6.25;;;5.60;;
10845;SDS011;5476;51.540;7.186;2023-06-14T01:03:16;7.55;;;5.35;;
10845;SDS011;5476;51.540;7.186;2023-06-14T01:05:49;7.63;;;5.00;;
10845;SDS011;5476;51.540;7.186;2023-06-14T01:08:28;6.93;;;5.57;;
10845;SDS011;5476;51.540;7.186;2023-06-14T01:11:05;5.70;;;5.10;;
10845;SDS011;5476;51.540;7.186;2023-06-14T01:13:48;6.85;;;5.15;;
10845;SDS011;5476;51.540;7.186;2023-06-14T01:16:18;7.78;;;5.25;;
10845;SDS011;5476;51.540;7.186;2023-06-14T01:18:45;9.35;;;5.30;;
10845;SDS011;5476;51.540;7.186;2023-06-14T01:21:22;6.10;;;4.93;;
10845;SDS011;5476;51.540;7.186;2023-06-14T01:23:51;6.20;;;4.80;;
10845;SDS011;5476;51.540;7.186;2023-06-14T01:26:19;6.15;;;4.90;;
10845;SDS011;5476;51.540;7.186;2023-06-14T01:28:47;5.90;;;4.90;;
10845;SDS011;5476;51.540;7.186;2023-06-14T01:31:16;5.63;;;4.53;;
10845;SDS011;5476;51.540;7.186;2023-06-14T01:33:46;7.43;;;4.97;;
10845;SDS011;5476;51.540;7.186;2023-06-14T01:36:15;4.93;;;4.43;;
10845;SDS011;5476;51.540;7.186;2023-06-14T01:38:44;7.40;;;5.07;;
10845;SDS011;5476;51.540;7.186;2023-06-14T01:41:16;4.80;;;4.20;;
10845;SDS011;5476;51.540;7.186;2023-06-14T01:43:45;6.03;;;4.20;;
10845;SDS011;5476;51.540;7.186;2023-06-14T01:46:13;4.30;;;3.90;;
10845;SDS011;5476;51.540;7.186;2023-06-14T01:48:42;6.97;;;4.40;;
10845;SDS011;5476;51.540;7.186;2023-06-14T01:51:09;5.80;;;4.80;;
10845;SDS011;5476;51.540;7.186;2023-06-14T01:53:36;5.88;;;4.00;;
10845;SDS011;5476;51.540;7.186;2023-06-14T01:56:04;5.50;;;4.35;;
10845;SDS011;5476;51.540;7.186;2023-06-14T01:58:32;4.70;;;4.20;;
10845;SDS011;5476;51.540;7.186;2023-06-14T02:01:00;9.68;;;4.18;;
10845;SDS011;5476;51.540;7.186;2023-06-14T02:03:27;5.30;;;3.95;;
10845;SDS011;5476;51.540;7.186;2023-06-14T02:05:55;9.45;;;4.28;;
10845;SDS011;5476;51.540;7.186;2023-06-14T02:08:22;4.88;;;4.10;;
10845;SDS011;5476;51.540;7.186;2023-06-14T02:10:49;5.53;;;3.65;;
10845;SDS011;5476;51.540;7.186;2023-06-14T02:13:16;6.70;;;4.13;;
10845;SDS011;5476;51.540;7.186;2023-06-14T02:15:45;4.75;;;3.70;;
10845;SDS011;5476;51.540;7.186;2023-06-14T02:18:16;5.30;;;3.78;;
10845;SDS011;5476;51.540;7.186;2023-06-14T02:20:43;4.55;;;4.15;;
10845;SDS011;5476;51.540;7.186;2023-06-14T02:23:10;5.65;;;3.88;;
10845;SDS011;5476;51.540;7.186;2023-06-14T02:25:37;4.68;;;3.72;;
10845;SDS011;5476;51.540;7.186;2023-06-14T02:28:05;4.43;;;3.38;;
10845;SDS011;5476;51.540;7.186;2023-06-14T02:30:32;5.38;;;3.70;;
10845;SDS011;5476;51.540;7.186;2023-06-14T02:33:01;5.65;;;3.72;;
10845;SDS011;5476;51.540;7.186;2023-06-14T02:35:29;3.88;;;3.58;;
10845;SDS011;5476;51.540;7.186;2023-06-14T02:37:57;4.97;;;3.47;;
10845;SDS011;5476;51.540;7.186;2023-06-14T02:40:24;5.95;;;3.67;;
10845;SDS011;5476;51.540;7.186;2023-06-14T02:42:51;4.45;;;3.47;;
10845;SDS011;5476;51.540;7.186;2023-06-14T02:45:18;5.03;;;3.63;;
10845;SDS011;5476;51.540;7.186;2023-06-14T02:47:46;4.38;;;3.97;;
10845;SDS011;5476;51.540;7.186;2023-06-14T02:50:14;4.70;;;3.72;;
10845;SDS011;5476;51.540;7.186;2023-06-14T02:52:42;4.93;;;3.53;;
10845;SDS011;5476;51.540;7.186;2023-06-14T02:55:10;5.45;;;3.83;;
10845;SDS011;5476;51.540;7.186;2023-06-14T02:57:37;4.10;;;3.70;;
10845;SDS011;5476;51.540;7.186;2023-06-14T03:00:05;5.65;;;3.45;;
10845;SDS011;5476;51.540;7.186;2023-06-14T03:02:34;3.95;;;3.42;;
10845;SDS011;5476;51.540;7.186;2023-06-14T03:05:02;5.63;;;3.47;;
10845;SDS011;5476;51.540;7.186;2023-06-14T03:07:32;4.95;;;3.28;;
10845;SDS011;5476;51.540;7.186;2023-06-14T03:09:59;3.30;;;3.00;;
10845;SDS011;5476;51.540;7.186;2023-06-14T03:12:28;7.95;;;3.70;;
10845;SDS011;5476;51.540;7.186;2023-06-14T03:14:56;3.78;;;3.33;;
10845;SDS011;5476;51.540;7.186;2023-06-14T03:17:27;3.63;;;3.33;;
10845;SDS011;5476;51.540;7.186;2023-06-14T03:19:55;5.05;;;4.05;;
10845;SDS011;5476;51.540;7.186;2023-06-14T03:22:22;6.97;;;3.60;;
10845;SDS011;5476;51.540;7.186;2023-06-14T03:24:52;4.60;;;3.50;;
10845;SDS011;5476;51.540;7.186;2023-06-14T03:27:20;9.35;;;3.70;;
10845;SDS011;5476;51.540;7.186;2023-06-14T03:29:47;5.15;;;3.88;;
10845;SDS011;5476;51.540;7.186;2023-06-14T03:32:14;4.22;;;3.80;;
10845;SDS011;5476;51.540;7.186;2023-06-14T03:34:41;4.45;;;3.60;;
10845;SDS011;5476;51.540;7.186;2023-06-14T03:37:11;3.72;;;3.40;;
10845;SDS011;5476;51.540;7.186;2023-06-14T03:39:38;3.67;;;3.13;;
10845;SDS011;5476;51.540;7.186;2023-06-14T03:42:12;4.65;;;3.50;;
10845;SDS011;5476;51.540;7.186;2023-06-14T03:44:40;4.45;;;3.13;;
10845;SDS011;5476;51.540;7.186;2023-06-14T03:47:07;4.90;;;3.42;;
10845;SDS011;5476;51.540;7.186;2023-06-14T03:49:34;3.47;;;3.15;;
10845;SDS011;5476;51.540;7.186;2023-06-14T03:52:02;5.47;;;3.42;;
10845;SDS011;5476;51.540;7.186;2023-06-14T03:54:29;4.43;;;3.55;;
10845;SDS011;5476;51.540;7.186;2023-06-14T03:56:57;4.95;;;2.97;;
10845;SDS011;5476;51.540;7.186;2023-06-14T03:59:26;6.25;;;3.30;;
10845;SDS011;5476;51.540;7.186;2023-06-14T04:01:53;6.53;;;3.40;;
10845;SDS011;5476;51.540;7.186;2023-06-14T04:04:21;3.90;;;3.20;;
10845;SDS011;5476;51.540;7.186;2023-06-14T04:06:53;5.50;;;3.25;;
10845;SDS011;5476;51.540;7.186;2023-06-14T04:09:21;5.07;;;3.38;;
10845;SDS011;5476;51.540;7.186;2023-06-14T04:11:50;6.00;;;3.20;;
10845;SDS011;5476;51.540;7.186;2023-06-14T04:14:17;5.25;;;3.22;;
10845;SDS011;5476;51.540;7.186;2023-06-14T04:16:46;3.58;;;3.17;;
10845;SDS011;5476;51.540;7.186;2023-06-14T04:19:13;3.55;;;2.90;;
10845;SDS011;5476;51.540;7.186;2023-06-14T04:21:40;4.00;;;3.20;;
10845;SDS011;5476;51.540;7.186;2023-06-14T04:24:07;4.68;;;3.20;;
10845;SDS011;5476;51.540;7.186;2023-06-14T04:26:38;5.40;;;4.22;;
10845;SDS011;5476;51.540;7.186;2023-06-14T04:29:05;3.72;;;3.20;;
10845;SDS011;5476;51.540;7.186;2023-06-14T04:31:32;4.05;;;3.55;;
10845;SDS011;5476;51.540;7.186;2023-06-14T04:34:03;4.70;;;3.35;;
10845;SDS011;5476;51.540;7.186;2023-06-14T04:36:31;5.40;;;3.40;;
10845;SDS011;5476;51.540;7.186;2023-06-14T04:38:59;5.45;;;3.47;;
10845;SDS011;5476;51.540;7.186;2023-06-14T04:41:28;4.10;;;3.60;;
10845;SDS011;5476;51.540;7.186;2023-06-14T04:43:56;4.13;;;3.50;;
10845;SDS011;5476;51.540;7.186;2023-06-14T04:46:26;4.80;;;3.30;;
10845;SDS011;5476;51.540;7.186;2023-06-14T04:48:53;5.63;;;2.90;;
10845;SDS011;5476;51.540;7.186;2023-06-14T04:51:23;4.32;;;3.42;;
10845;SDS011;5476;51.540;7.186;2023-06-14T04:53:54;3.95;;;3.28;;
10845;SDS011;5476;51.540;7.186;2023-06-14T04:56:23;3.45;;;3.10;;
10845;SDS011;5476;51.540;7.186;2023-06-14T04:58:51;4.25;;;3.20;;
10845;SDS011;5476;51.540;7.186;2023-06-14T05:01:19;4.05;;;3.20;;
10845;SDS011;5476;51.540;7.186;2023-06-14T05:03:48;3.95;;;2.95;;
10845;SDS011;5476;51.540;7.186;2023-06-14T05:06:15;4.57;;;3.15;;
10845;SDS011;5476;51.540;7.186;2023-06-14T05:08:44;5.60;;;3.40;;
10845;SDS011;5476;51.540;7.186;2023-06-14T05:11:11;5.88;;;3.20;;
10845;SDS011;5476;51.540;7.186;2023-06-14T05:13:38;5.05;;;3.10;;
10845;SDS011;5476;51.540;7.186;2023-06-14T05:16:06;4.38;;;3.45;;
10845;SDS011;5476;51.540;7.186;2023-06-14T05:18:33;4.53;;;3.45;;
10845;SDS011;5476;51.540;7.186;2023-06-14T05:21:00;4.80;;;3.35;;
10845;SDS011;5476;51.540;7.186;2023-06-14T05:23:28;4.28;;;3.42;;
10845;SDS011;5476;51.540;7.186;2023-06-14T05:25:57;5.82;;;3.30;;
10845;SDS011;5476;51.540;7.186;2023-06-14T05:28:24;5.40;;;2.85;;
10845;SDS011;5476;51.540;7.186;2023-06-14T05:30:51;5.68;;;2.83;;
10845;SDS011;5476;51.540;7.186;2023-06-14T05:33:18;4.80;;;2.92;;
10845;SDS011;5476;51.540;7.186;2023-06-14T05:35:46;5.78;;;3.15;;
10845;SDS011;5476;51.540;7.186;2023-06-14T05:38:13;4.30;;;3.17;;
10845;SDS011;5476;51.540;7.186;2023-06-14T05:40:40;8.13;;;3.50;;
10845;SDS011;5476;51.540;7.186;2023-06-14T05:43:08;3.65;;;3.33;;
10845;SDS011;5476;51.540;7.186;2023-06-14T05:45:35;4.65;;;2.92;;
10845;SDS011;5476;51.540;7.186;2023-06-14T05:48:02;3.67;;;3.00;;
10845;SDS011;5476;51.540;7.186;2023-06-14T05:50:30;4.63;;;2.90;;
10845;SDS011;5476;51.540;7.186;2023-06-14T05:52:57;6.00;;;3.63;;
10845;SDS011;5476;51.540;7.186;2023-06-14T05:55:24;4.47;;;3.13;;
10845;SDS011;5476;51.540;7.186;2023-06-14T05:57:51;5.50;;;3.20;;
10845;SDS011;5476;51.540;7.186;2023-06-14T06:00:20;7.35;;;3.55;;
10845;SDS011;5476;51.540;7.186;2023-06-14T06:02:47;5.15;;;3.10;;
10845;SDS011;5476;51.540;7.186;2023-06-14T06:05:14;4.90;;;3.15;;
10845;SDS011;5476;51.540;7.186;2023-06-14T06:07:42;4.85;;;3.42;;
10845;SDS011;5476;51.540;7.186;2023-06-14T06:10:09;5.22;;;2.92;;
10845;SDS011;5476;51.540;7.186;2023-06-14T06:12:36;4.38;;;3.28;;
10845;SDS011;5476;51.540;7.186;2023-06-14T06:15:04;3.92;;;2.95;;
10845;SDS011;5476;51.540;7.186;2023-06-14T06:17:33;10.15;;;3.15;;
10845;SDS011;5476;51.540;7.186;2023-06-14T06:20:00;5.20;;;3.00;;
10845;SDS011;5476;51.540;7.186;2023-06-14T06:22:27;5.55;;;3.08;;
10845;SDS011;5476;51.540;7.186;2023-06-14T06:24:55;4.43;;;2.75;;
10845;SDS011;5476;51.540;7.186;2023-06-14T06:27:22;4.18;;;2.90;;
10845;SDS011;5476;51.540;7.186;2023-06-14T06:29:49;4.65;;;2.80;;
10845;SDS011;5476;51.540;7.186;2023-06-14T06:32:16;5.07;;;2.60;;
10845;SDS011;5476;51.540;7.186;2023-06-14T06:34:45;4.78;;;2.72;;
10845;SDS011;5476;51.540;7.186;2023-06-14T06:37:13;4.07;;;2.60;;
10845;SDS011;5476;51.540;7.186;2023-06-14T06:39:40;3.53;;;2.60;;
10845;SDS011;5476;51.540;7.186;2023-06-14T06:42:07;4.18;;;2.95;;
10845;SDS011;5476;51.540;7.186;2023-06-14T06:44:35;4.47;;;2.88;;
10845;SDS011;5476;51.540;7.186;2023-06-14T06:47:03;6.10;;;3.15;;
10845;SDS011;5476;51.540;7.186;2023-06-14T06:49:30;3.13;;;2.60;;
10845;SDS011;5476;51.540;7.186;2023-06-14T06:52:02;4.32;;;2.67;;
10845;SDS011;5476;51.540;7.186;2023-06-14T06:54:30;5.30;;;2.78;;
10845;SDS011;5476;51.540;7.186;2023-06-14T06:56:57;4.18;;;2.92;;
10845;SDS011;5476;51.540;7.186;2023-06-14T06:59:25;5.68;;;3.15;;
10845;SDS011;5476;51.540;7.186;2023-06-14T07:01:52;7.63;;;3.10;;
10845;SDS011;5476;51.540;7.186;2023-06-14T07:04:18;2.95;;;2.70;;
10845;SDS011;5476;51.540;7.186;2023-06-14T07:06:46;3.65;;;2.70;;
10845;SDS011;5476;51.540;7.186;2023-06-14T07:09:15;5.65;;;2.80;;
10845;SDS011;5476;51.540;7.186;2023-06-14T07:11:43;4.40;;;2.25;;
10845;SDS011;5476;51.540;7.186;2023-06-14T07:14:10;4.57;;;3.00;;
10845;SDS011;5476;51.540;7.186;2023-06-14T07:16:37;4.78;;;2.85;;
10845;SDS011;5476;51.540;7.186;2023-06-14T07:19:06;3.53;;;2.97;;
10845;SDS011;5476;51.540;7.186;2023-06-14T07:21:34;3.63;;;2.60;;
10845;SDS011;5476;51.540;7.186;2023-06-14T07:24:02;3.05;;;2.60;;
10845;SDS011;5476;51.540;7.186;2023-06-14T07:26:32;3.80;;;2.60;;
10845;SDS011;5476;51.540;7.186;2023-06-14T07:29:00;8.02;;;2.33;;
10845;SDS011;5476;51.540;7.186;2023-06-14T07:31:27;4.05;;;2.83;;
10845;SDS011;5476;51.540;7.186;2023-06-14T07:33:54;3.03;;;2.38;;
10845;SDS011;5476;51.540;7.186;2023-06-14T07:36:21;4.05;;;2.58;;
10845;SDS011;5476;51.540;7.186;2023-06-14T07:38:48;3.35;;;2.30;;
10845;SDS011;5476;51.540;7.186;2023-06-14T07:41:15;6.05;;;2.70;;
10845;SDS011;5476;51.540;7.186;2023-06-14T07:43:44;3.35;;;2.30;;
10845;SDS011;5476;51.540;7.186;2023-06-14T07:46:10;2.70;;;2.13;;
10845;SDS011;5476;51.540;7.186;2023-06-14T07:48:38;2.83;;;2.40;;
10845;SDS011;5476;51.540;7.186;2023-06-14T07:51:05;3.70;;;2.60;;
10845;SDS011;5476;51.540;7.186;2023-06-14T07:53:32;4.75;;;2.70;;
10845;SDS011;5476;51.540;7.186;2023-06-14T07:56:03;3.53;;;2.70;;
10845;SDS011;5476;51.540;7.186;2023-06-14T07:58:30;3.22;;;2.55;;
10845;SDS011;5476;51.540;7.186;2023-06-14T08:00:58;3.45;;;2.65;;
10845;SDS011;5476;51.540;7.186;2023-06-14T08:03:28;2.92;;;2.58;;
10845;SDS011;5476;51.540;7.186;2023-06-14T08:05:56;4.07;;;2.60;;
10845;SDS011;5476;51.540;7.186;2023-06-14T08:08:23;4.97;;;2.70;;
10845;SDS011;5476;51.540;7.186;2023-06-14T08:10:50;3.88;;;2.42;;
10845;SDS011;5476;51.540;7.186;2023-06-14T08:13:17;3.15;;;2.85;;
10845;SDS011;5476;51.540;7.186;2023-06-14T08:15:44;4.10;;;2.92;;
10845;SDS011;5476;51.540;7.186;2023-06-14T08:18:13;3.85;;;3.13;;
10845;SDS011;5476;51.540;7.186;2023-06-14T08:20:40;4.10;;;2.88;;
10845;SDS011;5476;51.540;7.186;2023-06-14T08:23:06;5.10;;;3.20;;
10845;SDS011;5476;51.540;7.186;2023-06-14T08:25:34;4.70;;;2.67;;
10845;SDS011;5476;51.540;7.186;2023-06-14T08:28:01;5.43;;;2.90;;
10845;SDS011;5476;51.540;7.186;2023-06-14T08:30:27;4.15;;;2.60;;
10845;SDS011;5476;51.540;7.186;2023-06-14T08:32:54;3.30;;;2.45;;
10845;SDS011;5476;51.540;7.186;2023-06-14T08:35:23;3.13;;;2.35;;
10845;SDS011;5476;51.540;7.186;2023-06-14T08:37:50;3.25;;;2.30;;
10845;SDS011;5476;51.540;7.186;2023-06-14T08:40:20;5.00;;;2.13;;
10845;SDS011;5476;51.540;7.186;2023-06-14T08:42:48;2.20;;;1.98;;
10845;SDS011;5476;51.540;7.186;2023-06-14T08:45:17;2.72;;;2.10;;
10845;SDS011;5476;51.540;7.186;2023-06-14T08:47:45;3.15;;;1.70;;
10845;SDS011;5476;51.540;7.186;2023-06-14T08:50:17;3.50;;;1.88;;
10845;SDS011;5476;51.540;7.186;2023-06-14T08:52:48;3.22;;;1.80;;
10845;SDS011;5476;51.540;7.186;2023-06-14T08:55:18;3.92;;;1.80;;
10845;SDS011;5476;51.540;7.186;2023-06-14T08:57:51;2.67;;;2.20;;
10845;SDS011;5476;51.540;7.186;2023-06-14T09:00:20;6.78;;;4.28;;
10845;SDS011;5476;51.540;7.186;2023-06-14T09:02:49;7.38;;;3.50;;
10845;SDS011;5476;51.540;7.186;2023-06-14T09:05:22;3.20;;;2.08;;
10845;SDS011;5476;51.540;7.186;2023-06-14T09:07:50;3.13;;;2.20;;
10845;SDS011;5476;51.540;7.186;2023-06-14T09:10:20;19.40;;;13.63;;
10845;SDS011;5476;51.540;7.186;2023-06-14T09:12:47;2.15;;;1.58;;
10845;SDS011;5476;51.540;7.186;2023-06-14T09:15:14;1.95;;;1.80;;
10845;SDS011;5476;51.540;7.186;2023-06-14T09:17:42;2.33;;;1.85;;
10845;SDS011;5476;51.540;7.186;2023-06-14T09:20:09;1.88;;;1.60;;
10845;SDS011;5476;51.540;7.186;2023-06-14T09:22:38;2.88;;;1.60;;
10845;SDS011;5476;51.540;7.186;2023-06-14T09:25:08;3.47;;;1.70;;
10845;SDS011;5476;51.540;7.186;2023-06-14T09:27:37;2.28;;;1.60;;
10845;SDS011;5476;51.540;7.186;2023-06-14T09:30:06;1.65;;;1.52;;
10845;SDS011;5476;51.540;7.186;2023-06-14T09:32:36;2.10;;;1.75;;
10845;SDS011;5476;51.540;7.186;2023-06-14T09:35:05;2.90;;;1.58;;
10845;SDS011;5476;51.540;7.186;2023-06-14T09:37:33;1.60;;;1.30;;
10845;SDS011;5476;51.540;7.186;2023-06-14T09:40:03;2.70;;;1.35;;
10845;SDS011;5476;51.540;7.186;2023-06-14T09:42:32;12.25;;;10.57;;
10845;SDS011;5476;51.540;7.186;2023-06-14T09:45:00;3.05;;;1.50;;
10845;SDS011;5476;51.540;7.186;2023-06-14T09:47:29;2.58;;;1.10;;
10845;SDS011;5476;51.540;7.186;2023-06-14T09:49:56;1.25;;;1.15;;
10845;SDS011;5476;51.540;7.186;2023-06-14T09:52:23;3.05;;;2.15;;
10845;SDS011;5476;51.540;7.186;2023-06-14T09:54:51;1.33;;;1.23;;
10845;SDS011;5476;51.540;7.186;2023-06-14T09:57:22;1.85;;;1.10;;
10845;SDS011;5476;51.540;7.186;2023-06-14T09:59:57;1.30;;;1.20;;
10845;SDS011;5476;51.540;7.186;2023-06-14T10:02:26;1.70;;;1.30;;
10845;SDS011;5476;51.540;7.186;2023-06-14T10:04:58;1.73;;;1.40;;
10845;SDS011;5476;51.540;7.186;2023-06-14T10:07:32;1.20;;;1.10;;
10845;SDS011;5476;51.540;7.186;2023-06-14T10:10:01;1.33;;;1.20;;
10845;SDS011;5476;51.540;7.186;2023-06-14T10:12:30;2.10;;;1.10;;
10845;SDS011;5476;51.540;7.186;2023-06-14T10:14:58;1.88;;;1.23;;
10845;SDS011;5476;51.540;7.186;2023-06-14T10:17:27;1.60;;;1.42;;
10845;SDS011;5476;51.540;7.186;2023-06-14T10:20:10;2.45;;;1.50;;
10845;SDS011;5476;51.540;7.186;2023-06-14T10:22:46;1.63;;;1.52;;
10845;SDS011;5476;51.540;7.186;2023-06-14T10:25:25;1.50;;;1.40;;
10845;SDS011;5476;51.540;7.186;2023-06-14T10:28:02;2.17;;;1.42;;
10845;SDS011;5476;51.540;7.186;2023-06-14T10:30:32;3.35;;;1.23;;
10845;SDS011;5476;51.540;7.186;2023-06-14T10:33:05;1.63;;;1.50;;
10845;SDS011;5476;51.540;7.186;2023-06-14T10:35:34;1.70;;;1.30;;
10845;SDS011;5476;51.540;7.186;2023-06-14T10:38:08;2.83;;;1.58;;
10845;SDS011;5476;51.540;7.186;2023-06-14T10:40:36;1.95;;;1.33;;
10845;SDS011;5476;51.540;7.186;2023-06-14T10:48:42;1.42;;;1.33;;
10845;SDS011;5476;51.540;7.186;2023-06-14T10:51:16;3.80;;;1.42;;
10845;SDS011;5476;51.540;7.186;2023-06-14T10:53:56;1.58;;;1.48;;
10845;SDS011;5476;51.540;7.186;2023-06-14T10:56:28;2.45;;;1.50;;
10845;SDS011;5476;51.540;7.186;2023-06-14T10:58:59;1.85;;;1.63;;
10845;SDS011;5476;51.540;7.186;2023-06-14T11:01:41;2.58;;;1.50;;
10845;SDS011;5476;51.540;7.186;2023-06-14T11:04:23;2.08;;;1.55;;
10845;SDS011;5476;51.540;7.186;2023-06-14T11:07:24;2.35;;;1.60;;
10845;SDS011;5476;51.540;7.186;2023-06-14T11:10:10;2.13;;;1.50;;
10845;SDS011;5476;51.540;7.186;2023-06-14T11:12:48;1.63;;;1.52;;
10845;SDS011;5476;51.540;7.186;2023-06-14T11:15:17;2.95;;;1.70;;
10845;SDS011;5476;51.540;7.186;2023-06-14T11:17:51;9.88;;;2.17;;
10845;SDS011;5476;51.540;7.186;2023-06-14T11:20:19;2.97;;;1.40;;
10845;SDS011;5476;51.540;7.186;2023-06-14T11:22:46;2.67;;;1.50;;
10845;SDS011;5476;51.540;7.186;2023-06-14T11:25:14;1.80;;;1.70;;
10845;SDS011;5476;51.540;7.186;2023-06-14T11:27:41;1.70;;;1.58;;
10845;SDS011;5476;51.540;7.186;2023-06-14T11:30:13;1.85;;;1.70;;
10845;SDS011;5476;51.540;7.186;2023-06-14T11:32:46;3.35;;;1.80;;
10845;SDS011;5476;51.540;7.186;2023-06-14T11:35:15;2.05;;;1.60;;
10845;SDS011;5476;51.540;7.186;2023-06-14T11:37:42;2.10;;;1.63;;
10845;SDS011;5476;51.540;7.186;2023-06-14T11:40:10;2.78;;;1.90;;
10845;SDS011;5476;51.540;7.186;2023-06-14T11:42:39;4.05;;;2.60;;
10845;SDS011;5476;51.540;7.186;2023-06-14T11:45:07;3.05;;;2.17;;
10845;SDS011;5476;51.540;7.186;2023-06-14T11:47:41;2.10;;;1.90;;
10845;SDS011;5476;51.540;7.186;2023-06-14T11:50:09;3.53;;;2.40;;
10845;SDS011;5476;51.540;7.186;2023-06-14T11:52:38;3.53;;;2.17;;
10845;SDS011;5476;51.540;7.186;2023-06-14T11:55:05;2.80;;;2.10;;
10845;SDS011;5476;51.540;7.186;2023-06-14T11:57:33;3.60;;;2.30;;
10845;SDS011;5476;51.540;7.186;2023-06-14T12:00:03;5.05;;;2.10;;
10845;SDS011;5476;51.540;7.186;2023-06-14T12:02:37;2.95;;;2.20;;
10845;SDS011;5476;51.540;7.186;2023-06-14T12:05:05;2.80;;;2.08;;
10845;SDS011;5476;51.540;7.186;2023-06-14T12:07:36;2.63;;;2.30;;
10845;SDS011;5476;51.540;7.186;2023-06-14T12:10:07;2.95;;;2.28;;
10845;SDS011;5476;51.540;7.186;2023-06-14T12:12:36;2.55;;;2.38;;
10845;SDS011;5476;51.540;7.186;2023-06-14T12:15:05;3.85;;;2.58;;
10845;SDS011;5476;51.540;7.186;2023-06-14T12:17:34;4.07;;;2.47;;
10845;SDS011;5476;51.540;7.186;2023-06-14T12:20:05;4.40;;;2.20;;
10845;SDS011;5476;51.540;7.186;2023-06-14T12:22:35;2.70;;;2.22;;
10845;SDS011;5476;51.540;7.186;2023-06-14T12:25:04;3.38;;;2.42;;
10845;SDS011;5476;51.540;7.186;2023-06-14T12:27:34;5.15;;;2.35;;
10845;SDS011;5476;51.540;7.186;2023-06-14T12:30:04;2.60;;;2.30;;
10845;SDS011;5476;51.540;7.186;2023-06-14T12:32:33;2.70;;;2.47;;
10845;SDS011;5476;51.540;7.186;2023-06-14T12:35:01;2.63;;;2.17;;
10845;SDS011;5476;51.540;7.186;2023-06-14T12:37:28;6.60;;;2.42;;
10845;SDS011;5476;51.540;7.186;2023-06-14T12:39:56;2.72;;;2.28;;
10845;SDS011;5476;51.540;7.186;2023-06-14T12:42:25;2.20;;;2.05;;
10845;SDS011;5476;51.540;7.186;2023-06-14T12:44:52;3.78;;;2.50;;
10845;SDS011;5476;51.540;7.186;2023-06-14T12:47:20;3.08;;;2.70;;
10845;SDS011;5476;51.540;7.186;2023-06-14T12:49:47;3.30;;;2.42;;
10845;SDS011;5476;51.540;7.186;2023-06-14T12:52:15;3.70;;;2.22;;
10845;SDS011;5476;51.540;7.186;2023-06-14T12:54:43;3.67;;;2.28;;
10845;SDS011;5476;51.540;7.186;2023-06-14T12:57:10;2.78;;;2.53;;
10845;SDS011;5476;51.540;7.186;2023-06-14T12:59:39;2.45;;;2.25;;
10845;SDS011;5476;51.540;7.186;2023-06-14T13:02:12;4.03;;;2.40;;
10845;SDS011;5476;51.540;7.186;2023-06-14T13:04:40;4.63;;;2.38;;
10845;SDS011;5476;51.540;7.186;2023-06-14T13:07:07;3.33;;;2.38;;
10845;SDS011;5476;51.540;7.186;2023-06-14T13:09:35;3.80;;;2.40;;
10845;SDS011;5476;51.540;7.186;2023-06-14T13:12:03;2.35;;;2.15;;
10845;SDS011;5476;51.540;7.186;2023-06-14T13:14:30;2.75;;;2.33;;
10845;SDS011;5476;51.540;7.186;2023-06-14T13:16:59;2.90;;;2.60;;
10845;SDS011;5476;51.540;7.186;2023-06-14T13:19:25;3.45;;;2.40;;
10845;SDS011;5476;51.540;7.186;2023-06-14T13:21:53;5.05;;;2.58;;
10845;SDS011;5476;51.540;7.186;2023-06-14T13:24:20;3.80;;;2.28;;
10845;SDS011;5476;51.540;7.186;2023-06-14T13:26:47;3.97;;;2.38;;
10845;SDS011;5476;51.540;7.186;2023-06-14T13:29:14;5.22;;;2.50;;
10845;SDS011;5476;51.540;7.186;2023-06-14T13:31:41;3.10;;;2.50;;
10845;SDS011;5476;51.540;7.186;2023-06-14T13:34:10;2.50;;;2.30;;
10845;SDS011;5476;51.540;7.186;2023-06-14T13:36:40;2.90;;;2.17;;
10845;SDS011;5476;51.540;7.186;2023-06-14T13:39:07;5.30;;;2.80;;
10845;SDS011;5476;51.540;7.186;2023-06-14T13:41:35;2.70;;;2.50;;
10845;SDS011;5476;51.540;7.186;2023-06-14T13:44:02;2.65;;;2.10;;
10845;SDS011;5476;51.540;7.186;2023-06-14T13:46:30;3.17;;;2.42;;
10845;SDS011;5476;51.540;7.186;2023-06-14T13:48:58;3.15;;;2.58;;
10845;SDS011;5476;51.540;7.186;2023-06-14T13:51:28;3.25;;;2.78;;
10845;SDS011;5476;51.540;7.186;2023-06-14T13:53:55;4.05;;;2.30;;
10845;SDS011;5476;51.540;7.186;2023-06-14T13:56:22;2.97;;;2.42;;
10845;SDS011;5476;51.540;7.186;2023-06-14T13:58:50;3.30;;;2.60;;
10845;SDS011;5476;51.540;7.186;2023-06-14T14:01:17;2.53;;;2.33;;
10845;SDS011;5476;51.540;7.186;2023-06-14T14:03:45;2.58;;;2.38;;
10845;SDS011;5476;51.540;7.186;2023-06-14T14:06:13;3.38;;;2.65;;
10845;SDS011;5476;51.540;7.186;2023-06-14T14:08:41;3.28;;;2.33;;
10845;SDS011;5476;51.540;7.186;2023-06-14T14:11:08;2.50;;;2.25;;
10845;SDS011;5476;51.540;7.186;2023-06-14T14:13:36;2.70;;;2.47;;
10845;SDS011;5476;51.540;7.186;2023-06-14T14:16:03;3.60;;;2.45;;
10845;SDS011;5476;51.540;7.186;2023-06-14T14:18:31;4.00;;;2.35;;
10845;SDS011;5476;51.540;7.186;2023-06-14T14:20:58;2.80;;;2.50;;
10845;SDS011;5476;51.540;7.186;2023-06-14T14:23:27;3.28;;;2.15;;
10845;SDS011;5476;51.540;7.186;2023-06-14T14:25:56;4.13;;;2.78;;
10845;SDS011;5476;51.540;7.186;2023-06-14T14:28:23;3.67;;;2.47;;
10845;SDS011;5476;51.540;7.186;2023-06-14T14:30:50;2.80;;;2.60;;
10845;SDS011;5476;51.540;7.186;2023-06-14T14:33:18;2.72;;;2.50;;
10845;SDS011;5476;51.540;7.186;2023-06-14T14:35:46;3.15;;;2.40;;
10845;SDS011;5476;51.540;7.186;2023-06-14T14:38:13;3.17;;;2.53;;
10845;SDS011;5476;51.540;7.186;2023-06-14T14:40:41;6.38;;;2.70;;
10845;SDS011;5476;51.540;7.186;2023-06-14T14:43:44;6.97;;;3.30;;
10845;SDS011;5476;51.540;7.186;2023-06-14T14:46:11;6.95;;;3.13;;
10845;SDS011;5476;51.540;7.186;2023-06-14T14:48:38;5.95;;;2.90;;
10845;SDS011;5476;51.540;7.186;2023-06-14T14:51:05;3.20;;;2.80;;
10845;SDS011;5476;51.540;7.186;2023-06-14T14:53:32;19.17;;;6.30;;
10845;SDS011;5476;51.540;7.186;2023-06-14T14:55:59;3.33;;;2.92;;
10845;SDS011;5476;51.540;7.186;2023-06-14T14:58:26;3.53;;;3.05;;
10845;SDS011;5476;51.540;7.186;2023-06-14T15:00:54;3.55;;;3.00;;
10845;SDS011;5476;51.540;7.186;2023-06-14T15:03:21;2.70;;;2.50;;
10845;SDS011;5476;51.540;7.186;2023-06-14T15:05:48;3.75;;;2.58;;
10845;SDS011;5476;51.540;7.186;2023-06-14T15:08:15;2.85;;;2.45;;
10845;SDS011;5476;51.540;7.186;2023-06-14T15:10:42;3.05;;;2.58;;
10845;SDS011;5476;51.540;7.186;2023-06-14T15:13:10;10.63;;;3.80;;
10845;SDS011;5476;51.540;7.186;2023-06-14T15:15:37;4.28;;;2.92;;